Time;durP1;ratioP1;P1;durP2;ratioP2;P2;SDS_P1;SDS_P2;PMS_P1;PMS_P2;Temp;Humidity;BMP_temperature;BMP_pressure;BME280_temperature;BME280_humidity;BME280_pressure;Samples;Min_cycle;Max_cycle;Signal;HPM_P1;HPM_P2
2022/11/17 00:01:43;;;;;;;4.10;2.50;;;;;;;;;;5068146;28;20165;-79
2022/11/17 00:04:09;;;;;;;3.80;2.60;;;;;;;;;;5049044;28;20700;-79
2022/11/17 00:06:35;;;;;;;3.53;1.87;;;;;;;;;;5067799;28;20692;-79
2022/11/17 00:09:01;;;;;;;3.23;2.03;;;;;;;;;;5051180;28;20186;-79
2022/11/17 00:14:31;;;;;;;5.00;2.87;;;;;;;;;;5064572;28;20201;-79
2022/11/17 00:14:32;;;;;;;5.80;3.03;;;;;;;;;;5042125;28;20223;-79
2022/11/17 00:17:02;;;;;;;6.47;2.73;;;;;;;;;;5065445;28;20181;-79
2022/11/17 00:22:13;;;;;;;4.70;2.70;;;;;;;;;;5067727;28;20217;-79
2022/11/17 00:24:40;;;;;;;6.03;2.70;;;;;;;;;;5067575;28;20238;-79
2022/11/17 00:27:06;;;;;;;6.33;3.27;;;;;;;;;;5067595;28;20185;-79
2022/11/17 00:29:34;;;;;;;6.37;3.40;;;;;;;;;;5063144;28;20186;-79
2022/11/17 00:34:48;;;;;;;4.80;2.67;;;;;;;;;;5063910;28;20177;-79
2022/11/17 00:37:15;;;;;;;5.57;2.43;;;;;;;;;;5066407;28;20185;-79
2022/11/17 00:39:42;;;;;;;4.63;2.73;;;;;;;;;;5068952;28;20242;-79
2022/11/17 00:42:08;;;;;;;3.93;2.40;;;;;;;;;;5068083;28;20203;-79
2022/11/17 00:44:34;;;;;;;6.10;2.70;;;;;;;;;;5068598;28;20185;-79
2022/11/17 00:47:00;;;;;;;4.67;2.70;;;;;;;;;;5083624;28;20193;-79
2022/11/17 00:49:26;;;;;;;3.77;2.50;;;;;;;;;;5067895;28;20185;-79
2022/11/17 00:51:53;;;;;;;5.20;2.70;;;;;;;;;;5065483;28;20213;-79
2022/11/17 00:54:19;;;;;;;6.03;3.03;;;;;;;;;;5063119;28;20168;-79
2022/11/17 00:56:46;;;;;;;5.47;2.67;;;;;;;;;;5074193;28;20236;-79
2022/11/17 00:59:12;;;;;;;7.10;2.57;;;;;;;;;;5067153;28;20189;-79
2022/11/17 01:01:39;;;;;;;2.77;2.10;;;;;;;;;;5055802;28;20708;-79
2022/11/17 01:04:05;;;;;;;4.97;2.70;;;;;;;;;;5083390;28;20201;-79
2022/11/17 01:06:36;;;;;;;3.97;2.43;;;;;;;;;;5067784;28;20188;-79
2022/11/17 01:09:04;;;;;;;5.67;2.77;;;;;;;;;;5074792;28;20173;-79
2022/11/17 01:11:30;;;;;;;3.97;2.40;;;;;;;;;;5067613;28;20189;-79
2022/11/17 01:13:57;;;;;;;5.70;3.17;;;;;;;;;;5074824;28;20197;-79
2022/11/17 01:16:23;;;;;;;3.70;2.40;;;;;;;;;;5059181;28;20660;-79
2022/11/17 01:18:50;;;;;;;5.07;2.83;;;;;;;;;;5066751;28;20185;-79
2022/11/17 01:21:18;;;;;;;3.90;2.40;;;;;;;;;;5066685;28;20237;-79
2022/11/17 01:23:45;;;;;;;5.30;2.60;;;;;;;;;;5067398;28;20208;-79
2022/11/17 01:26:12;;;;;;;4.77;2.57;;;;;;;;;;5082445;28;20890;-79
2022/11/17 01:28:38;;;;;;;4.40;2.30;;;;;;;;;;5062928;28;20296;-78
2022/11/17 01:31:06;;;;;;;3.93;2.30;;;;;;;;;;5066015;28;20192;-79
2022/11/17 01:33:32;;;;;;;4.10;2.47;;;;;;;;;;5066228;28;20311;-79
2022/11/17 01:36:05;;;;;;;3.93;2.10;;;;;;;;;;5059125;28;20193;-79
2022/11/17 01:38:32;;;;;;;3.67;1.97;;;;;;;;;;5081041;28;20262;-79
2022/11/17 01:40:59;;;;;;;4.83;2.43;;;;;;;;;;5063644;28;20219;-79
2022/11/17 01:43:45;;;;;;;4.97;2.50;;;;;;;;;;5065982;28;20193;-79
2022/11/17 01:46:15;;;;;;;4.27;2.10;;;;;;;;;;5065291;28;20218;-79
2022/11/17 01:48:42;;;;;;;2.93;2.13;;;;;;;;;;5070188;28;20177;-79
2022/11/17 01:51:09;;;;;;;3.13;2.20;;;;;;;;;;5066796;28;20209;-79
2022/11/17 01:53:35;;;;;;;4.67;2.13;;;;;;;;;;5080898;28;20200;-79
2022/11/17 01:56:04;;;;;;;3.13;2.03;;;;;;;;;;5065981;28;20234;-79
2022/11/17 01:58:40;;;;;;;3.03;1.67;;;;;;;;;;5061489;28;22022;-79
2022/11/17 02:01:06;;;;;;;2.40;1.70;;;;;;;;;;5065300;28;20189;-79
2022/11/17 02:03:33;;;;;;;1.77;1.40;;;;;;;;;;5066072;28;20201;-79
2022/11/17 02:06:11;;;;;;;3.20;1.83;;;;;;;;;;5065161;28;20268;-79
2022/11/17 02:08:38;;;;;;;3.63;2.30;;;;;;;;;;5083544;28;20265;-79
2022/11/17 02:11:08;;;;;;;5.30;3.73;;;;;;;;;;5083761;28;20228;-79
2022/11/17 02:13:35;;;;;;;4.87;2.10;;;;;;;;;;5065682;28;20221;-79
2022/11/17 02:16:02;;;;;;;3.63;1.80;;;;;;;;;;5066471;28;20655;-79
2022/11/17 02:18:28;;;;;;;3.97;1.80;;;;;;;;;;5082966;28;20177;-79
2022/11/17 02:21:13;;;;;;;2.10;1.70;;;;;;;;;;5061532;28;20181;-79
2022/11/17 02:23:58;;;;;;;3.47;1.87;;;;;;;;;;5065072;28;20197;-79
2022/11/17 02:26:42;;;;;;;2.40;1.93;;;;;;;;;;5063936;28;20843;-79
2022/11/17 02:29:12;;;;;;;4.03;1.50;;;;;;;;;;5064812;28;20170;-78
2022/11/17 02:31:55;;;;;;;2.77;1.60;;;;;;;;;;5076523;28;20691;-79
2022/11/17 02:34:24;;;;;;;2.93;1.70;;;;;;;;;;5064062;28;20195;-78
2022/11/17 02:36:55;;;;;;;3.20;1.50;;;;;;;;;;5080700;28;20180;-79
2022/11/17 02:39:21;;;;;;;4.37;1.60;;;;;;;;;;5065556;28;20177;-79
2022/11/17 02:42:03;;;;;;;4.57;1.50;;;;;;;;;;5062339;28;20176;-79
2022/11/17 02:44:38;;;;;;;2.47;1.60;;;;;;;;;;5070984;28;20664;-79
2022/11/17 02:47:26;;;;;;;3.77;1.87;;;;;;;;;;5066304;28;20737;-79
2022/11/17 02:50:04;;;;;;;2.37;1.80;;;;;;;;;;5068380;28;20181;-79
2022/11/17 02:52:31;;;;;;;4.00;1.83;;;;;;;;;;5083373;28;20243;-79
2022/11/17 02:54:59;;;;;;;4.03;1.60;;;;;;;;;;5069174;28;20193;-79
2022/11/17 02:57:35;;;;;;;3.10;1.87;;;;;;;;;;5067641;28;20660;-79
2022/11/17 03:00:05;;;;;;;3.70;1.80;;;;;;;;;;5067447;28;20238;-79
2022/11/17 03:02:31;;;;;;;3.53;2.20;;;;;;;;;;5084615;28;20284;-79
2022/11/17 03:04:57;;;;;;;3.03;1.90;;;;;;;;;;5065845;28;20208;-79
2022/11/17 03:07:30;;;;;;;2.80;1.80;;;;;;;;;;5062673;28;20212;-79
2022/11/17 03:10:02;;;;;;;3.63;1.90;;;;;;;;;;5066381;28;20180;-79
2022/11/17 03:12:58;;;;;;;2.63;1.60;;;;;;;;;;5062540;28;20208;-79
2022/11/17 03:15:28;;;;;;;2.40;1.47;;;;;;;;;;5050686;28;20197;-79
2022/11/17 03:18:04;;;;;;;3.93;2.13;;;;;;;;;;5052988;28;20185;-79
2022/11/17 03:20:41;;;;;;;2.43;1.80;;;;;;;;;;5070149;28;20192;-79
2022/11/17 03:23:13;;;;;;;3.23;1.80;;;;;;;;;;5049999;28;20212;-79
2022/11/17 03:25:43;;;;;;;3.73;2.23;;;;;;;;;;5068239;28;20185;-79
2022/11/17 03:28:11;;;;;;;2.17;1.60;;;;;;;;;;5061617;28;20272;-79
2022/11/17 03:30:41;;;;;;;1.37;1.27;;;;;;;;;;5057057;28;20689;-79
2022/11/17 03:33:09;;;;;;;2.83;1.60;;;;;;;;;;5067080;28;20205;-79
2022/11/17 03:35:38;;;;;;;1.93;1.50;;;;;;;;;;5053623;28;20656;-79
2022/11/17 03:38:07;;;;;;;2.07;1.43;;;;;;;;;;5068687;28;20185;-80
2022/11/17 03:40:35;;;;;;;2.23;1.40;;;;;;;;;;5074260;28;20649;-79
2022/11/17 03:43:03;;;;;;;2.10;1.30;;;;;;;;;;5071804;28;20228;-79
2022/11/17 03:45:32;;;;;;;2.30;1.70;;;;;;;;;;5055204;28;20288;-79
2022/11/17 03:48:04;;;;;;;1.77;1.30;;;;;;;;;;5054197;28;20185;-79
2022/11/17 03:50:33;;;;;;;2.27;1.70;;;;;;;;;;5073108;28;20196;-79
2022/11/17 03:53:01;;;;;;;2.97;1.60;;;;;;;;;;5070347;28;20213;-80
2022/11/17 03:55:30;;;;;;;2.10;1.73;;;;;;;;;;5072965;28;20648;-79
2022/11/17 03:58:03;;;;;;;3.70;2.10;;;;;;;;;;5068862;28;20192;-79
2022/11/17 04:00:30;;;;;;;4.27;2.10;;;;;;;;;;5053020;28;20280;-79
2022/11/17 04:02:59;;;;;;;2.00;1.67;;;;;;;;;;5069348;28;20209;-79
2022/11/17 04:05:26;;;;;;;5.33;1.97;;;;;;;;;;5062078;28;20282;-79
2022/11/17 04:07:52;;;;;;;3.93;1.90;;;;;;;;;;5068749;28;20181;-79
2022/11/17 04:10:24;;;;;;;2.77;1.60;;;;;;;;;;5090423;28;20181;-79
2022/11/17 04:18:22;;;;;;;5.10;2.17;;;;;;;;;;5067683;28;20192;-79
2022/11/17 04:20:55;;;;;;;4.17;2.20;;;;;;;;;;5068802;28;20181;-79
2022/11/17 04:23:22;;;;;;;3.63;2.10;;;;;;;;;;5064822;28;20206;-79
2022/11/17 04:28:42;;;;;;;2.47;1.47;;;;;;;;;;5063951;28;20280;-79
2022/11/17 04:31:13;;;;;;;7.03;4.50;;;;;;;;;;5066992;28;20184;-79
2022/11/17 04:33:41;;;;;;;3.50;2.30;;;;;;;;;;5069214;28;20295;-79
2022/11/17 04:36:07;;;;;;;4.68;1.92;;;;;;;;;;5077737;28;20436;-79
2022/11/17 04:38:34;;;;;;;3.87;1.70;;;;;;;;;;5076237;28;20214;-78
2022/11/17 04:43:50;;;;;;;5.20;2.30;;;;;;;;;;5078981;28;20221;-79
2022/11/17 04:46:16;;;;;;;5.30;2.23;;;;;;;;;;5082624;28;20185;-79
2022/11/17 04:48:43;;;;;;;5.23;2.20;;;;;;;;;;5077988;28;20694;-79
2022/11/17 04:51:09;;;;;;;4.07;2.50;;;;;;;;;;5083135;28;20811;-79
2022/11/17 04:53:36;;;;;;;5.07;3.00;;;;;;;;;;5070503;28;20232;-79
2022/11/17 04:56:02;;;;;;;2.67;2.13;;;;;;;;;;5050263;28;20374;-79
2022/11/17 04:58:28;;;;;;;5.07;2.50;;;;;;;;;;5066676;28;20829;-79
2022/11/17 05:00:54;;;;;;;4.60;2.80;;;;;;;;;;5066557;28;20706;-79
2022/11/17 05:03:21;;;;;;;3.90;2.07;;;;;;;;;;5065956;28;20261;-79
2022/11/17 05:05:48;;;;;;;5.13;2.57;;;;;;;;;;5067744;28;20189;-79
2022/11/17 05:08:14;;;;;;;8.00;3.50;;;;;;;;;;5067345;28;20208;-79
2022/11/17 05:13:25;;;;;;;6.00;2.63;;;;;;;;;;5062865;28;20224;-79
2022/11/17 05:18:41;;;;;;;5.80;2.60;;;;;;;;;;5062797;28;20181;-79
2022/11/17 05:21:08;;;;;;;4.43;2.20;;;;;;;;;;5065623;28;20602;-79
2022/11/17 05:23:52;;;;;;;9.20;3.43;;;;;;;;;;5067408;28;20731;-79
2022/11/17 05:26:20;;;;;;;8.37;3.23;;;;;;;;;;5082459;28;20181;-79
2022/11/17 05:28:46;;;;;;;3.63;2.33;;;;;;;;;;5068172;28;20188;-79
2022/11/17 05:31:12;;;;;;;7.13;3.10;;;;;;;;;;5070957;28;20181;-79
2022/11/17 05:33:38;;;;;;;9.90;4.17;;;;;;;;;;5070474;28;20208;-79
2022/11/17 05:36:05;;;;;;;6.20;2.50;;;;;;;;;;5049088;28;20207;-79
2022/11/17 05:38:31;;;;;;;4.83;2.40;;;;;;;;;;5064979;28;20185;-78
2022/11/17 05:41:00;;;;;;;6.53;2.60;;;;;;;;;;5044682;28;20188;-79
2022/11/17 05:43:27;;;;;;;8.33;2.90;;;;;;;;;;5047323;28;20266;-79
2022/11/17 05:45:53;;;;;;;7.10;3.10;;;;;;;;;;5065585;28;20243;-79
2022/11/17 05:48:19;;;;;;;6.13;3.07;;;;;;;;;;5064789;28;20193;-79
2022/11/17 05:50:46;;;;;;;4.03;2.10;;;;;;;;;;5064357;28;20181;-79
2022/11/17 05:53:12;;;;;;;2.97;1.10;;;;;;;;;;5068023;28;20399;-79
2022/11/17 05:55:39;;;;;;;1.20;1.10;;;;;;;;;;5071565;28;20226;-78
2022/11/17 05:58:09;;;;;;;1.83;1.30;;;;;;;;;;5064634;28;20181;-79
2022/11/17 06:00:36;;;;;;;1.33;1.00;;;;;;;;;;5066425;28;20189;-79
2022/11/17 06:03:07;;;;;;;1.17;0.97;;;;;;;;;;5064120;28;20308;-79
2022/11/17 06:05:34;;;;;;;1.30;0.97;;;;;;;;;;5080952;28;20272;-79
2022/11/17 06:08:00;;;;;;;1.47;1.20;;;;;;;;;;5066016;28;20756;-79
2022/11/17 06:10:26;;;;;;;2.70;1.20;;;;;;;;;;5064770;28;20220;-79
2022/11/17 06:12:52;;;;;;;1.67;1.10;;;;;;;;;;5065164;28;20221;-79
2022/11/17 06:15:18;;;;;;;1.40;1.10;;;;;;;;;;5067755;28;20177;-79
2022/11/17 06:17:48;;;;;;;2.03;1.20;;;;;;;;;;5064679;28;20193;-79
2022/11/17 06:20:18;;;;;;;1.17;1.00;;;;;;;;;;5063213;28;20700;-81
2022/11/17 06:22:44;;;;;;;2.38;1.10;;;;;;;;;;5061975;28;20455;-83
2022/11/17 06:25:11;;;;;;;2.33;1.10;;;;;;;;;;5058929;28;20209;-83
2022/11/17 06:27:38;;;;;;;1.70;1.03;;;;;;;;;;5047567;28;20821;-78
2022/11/17 06:30:05;;;;;;;3.13;1.20;;;;;;;;;;5062259;28;20174;-83
2022/11/17 06:32:32;;;;;;;1.43;1.10;;;;;;;;;;5055383;28;20216;-78
2022/11/17 06:34:59;;;;;;;3.27;1.37;;;;;;;;;;5063886;28;20177;-79
2022/11/17 06:37:25;;;;;;;2.20;1.13;;;;;;;;;;5057985;28;20660;-79
2022/11/17 06:39:51;;;;;;;2.23;1.20;;;;;;;;;;5061391;28;20181;-80
2022/11/17 06:42:17;;;;;;;1.73;1.23;;;;;;;;;;5066175;28;20216;-78
2022/11/17 06:44:44;;;;;;;1.80;1.20;;;;;;;;;;5070971;28;20790;-82
2022/11/17 06:47:10;;;;;;;2.37;1.50;;;;;;;;;;5048845;28;20181;-82
2022/11/17 06:49:36;;;;;;;3.03;1.50;;;;;;;;;;5065234;28;20865;-82
2022/11/17 06:52:02;;;;;;;1.63;1.17;;;;;;;;;;5057316;28;20296;-88
2022/11/17 06:54:28;;;;;;;2.93;1.30;;;;;;;;;;5058010;28;20190;-80
2022/11/17 06:56:54;;;;;;;1.97;1.30;;;;;;;;;;5065988;28;20252;-85
2022/11/17 06:59:20;;;;;;;2.23;1.40;;;;;;;;;;5069305;28;20185;-84
2022/11/17 07:01:47;;;;;;;2.23;1.30;;;;;;;;;;5066080;28;20202;-81
2022/11/17 07:04:13;;;;;;;2.33;1.30;;;;;;;;;;5067515;28;20200;-81
2022/11/17 07:06:39;;;;;;;1.77;1.20;;;;;;;;;;5033657;28;20471;-80
2022/11/17 07:09:05;;;;;;;2.20;1.20;;;;;;;;;;5063548;28;20191;-80
2022/11/17 07:11:34;;;;;;;1.70;1.20;;;;;;;;;;5051177;28;20880;-81
2022/11/17 07:14:00;;;;;;;3.87;1.30;;;;;;;;;;5064774;28;20225;-80
2022/11/17 07:16:28;;;;;;;3.47;1.47;;;;;;;;;;5065939;28;20243;-81
2022/11/17 07:18:54;;;;;;;2.60;1.30;;;;;;;;;;5064425;28;20230;-80
2022/11/17 07:21:21;;;;;;;4.33;1.37;;;;;;;;;;5066403;28;20207;-80
2022/11/17 07:23:47;;;;;;;2.63;1.13;;;;;;;;;;5047020;28;20202;-80
2022/11/17 07:26:13;;;;;;;1.40;1.07;;;;;;;;;;5080412;28;20186;-80
2022/11/17 07:28:39;;;;;;;2.47;1.30;;;;;;;;;;5068816;28;20189;-80
2022/11/17 07:31:07;;;;;;;2.33;1.40;;;;;;;;;;5073156;28;20268;-80
2022/11/17 07:33:33;;;;;;;2.70;1.37;;;;;;;;;;5068964;28;20205;-81
2022/11/17 07:36:08;;;;;;;3.97;1.30;;;;;;;;;;5052346;28;20177;-81
2022/11/17 07:38:35;;;;;;;2.67;1.10;;;;;;;;;;5069670;28;20607;-81
2022/11/17 07:41:01;;;;;;;1.77;1.20;;;;;;;;;;5071893;28;20189;-81
2022/11/17 07:43:28;;;;;;;1.90;1.27;;;;;;;;;;5069392;28;20219;-81
2022/11/17 07:45:54;;;;;;;2.17;1.20;;;;;;;;;;5070051;28;20184;-81
2022/11/17 07:48:20;;;;;;;1.63;1.17;;;;;;;;;;5052624;28;20201;-81
2022/11/17 07:50:47;;;;;;;1.50;1.10;;;;;;;;;;5068868;28;20212;-81
2022/11/17 07:53:13;;;;;;;1.93;1.10;;;;;;;;;;5070272;28;20235;-82
2022/11/17 07:55:39;;;;;;;4.47;1.50;;;;;;;;;;5052014;28;20177;-81
2022/11/17 07:58:05;;;;;;;2.27;1.30;;;;;;;;;;5052298;28;20181;-82
2022/11/17 08:00:33;;;;;;;2.73;1.10;;;;;;;;;;5069235;28;20181;-81
2022/11/17 08:03:00;;;;;;;2.60;1.10;;;;;;;;;;5053378;28;20620;-82
2022/11/17 08:05:29;;;;;;;3.57;1.30;;;;;;;;;;5066638;28;20774;-82
2022/11/17 08:07:56;;;;;;;3.07;1.30;;;;;;;;;;5051758;28;20633;-82
2022/11/17 08:10:25;;;;;;;2.73;1.03;;;;;;;;;;5069104;28;20185;-81
2022/11/17 08:12:52;;;;;;;2.17;1.10;;;;;;;;;;5058228;28;20308;-82
2022/11/17 08:15:18;;;;;;;3.17;1.23;;;;;;;;;;5058839;28;20181;-82
2022/11/17 08:17:44;;;;;;;2.33;1.20;;;;;;;;;;5068739;28;20189;-82
2022/11/17 08:20:11;;;;;;;3.63;1.30;;;;;;;;;;5069257;28;20671;-82
2022/11/17 08:22:37;;;;;;;3.33;1.30;;;;;;;;;;5035975;28;20213;-81
2022/11/17 08:25:04;;;;;;;2.53;1.30;;;;;;;;;;5037875;28;20185;-81
2022/11/17 08:27:30;;;;;;;3.70;1.50;;;;;;;;;;5068963;28;20197;-82
2022/11/17 08:29:56;;;;;;;2.77;1.20;;;;;;;;;;5041524;28;20185;-81
2022/11/17 08:32:22;;;;;;;2.73;1.30;;;;;;;;;;5076541;28;20258;-82
2022/11/17 08:34:48;;;;;;;4.20;1.30;;;;;;;;;;5051589;28;20213;-82
2022/11/17 08:37:14;;;;;;;5.20;1.30;;;;;;;;;;5083670;28;20249;-81
2022/11/17 08:39:41;;;;;;;4.00;1.50;;;;;;;;;;5069458;28;20220;-81
2022/11/17 08:42:07;;;;;;;3.30;1.20;;;;;;;;;;5069067;28;20322;-82
2022/11/17 08:44:33;;;;;;;2.83;1.30;;;;;;;;;;5069029;28;20234;-81
2022/11/17 08:46:59;;;;;;;3.10;1.50;;;;;;;;;;5068212;28;20185;-82
2022/11/17 08:49:25;;;;;;;3.23;1.30;;;;;;;;;;5070827;28;20189;-82
2022/11/17 08:51:51;;;;;;;3.03;1.30;;;;;;;;;;5085776;28;20196;-82
2022/11/17 08:54:18;;;;;;;4.27;1.77;;;;;;;;;;5071211;28;20177;-82
2022/11/17 08:56:45;;;;;;;4.67;1.50;;;;;;;;;;5070169;28;20201;-81
2022/11/17 08:59:12;;;;;;;6.17;1.50;;;;;;;;;;5071030;28;20268;-81
2022/11/17 09:01:38;;;;;;;3.77;1.70;;;;;;;;;;5036269;28;20255;-81
2022/11/17 09:04:04;;;;;;;2.57;1.30;;;;;;;;;;5054801;28;20696;-81
2022/11/17 09:06:31;;;;;;;5.53;1.60;;;;;;;;;;5069321;28;20251;-82
2022/11/17 09:08:57;;;;;;;5.50;1.57;;;;;;;;;;5070275;28;20192;-81
2022/11/17 09:11:23;;;;;;;2.90;1.40;;;;;;;;;;5061468;28;20208;-81
2022/11/17 09:13:49;;;;;;;3.57;1.53;;;;;;;;;;5067914;28;20220;-82
2022/11/17 09:16:16;;;;;;;3.93;1.40;;;;;;;;;;5064722;28;20276;-82
2022/11/17 09:18:43;;;;;;;5.90;1.70;;;;;;;;;;5070179;28;20249;-82
2022/11/17 09:21:10;;;;;;;7.07;1.90;;;;;;;;;;5066158;28;20178;-82
2022/11/17 09:23:37;;;;;;;4.87;2.40;;;;;;;;;;5042805;28;20212;-81
2022/11/17 09:26:07;;;;;;;5.80;2.20;;;;;;;;;;5067141;28;20688;-80
2022/11/17 09:28:34;;;;;;;7.30;2.00;;;;;;;;;;5066640;28;20181;-80
2022/11/17 09:31:04;;;;;;;7.43;2.00;;;;;;;;;;5064211;28;20185;-80
2022/11/17 09:33:31;;;;;;;4.40;1.70;;;;;;;;;;5056442;28;20216;-81
2022/11/17 09:35:57;;;;;;;5.30;1.80;;;;;;;;;;5060127;28;20885;-81
2022/11/17 09:38:24;;;;;;;5.63;1.80;;;;;;;;;;5068024;28;20196;-80
2022/11/17 09:40:51;;;;;;;6.73;2.10;;;;;;;;;;5050610;28;20268;-79
2022/11/17 09:43:23;;;;;;;6.33;2.20;;;;;;;;;;5068097;28;20228;-80
2022/11/17 09:45:51;;;;;;;5.03;1.80;;;;;;;;;;5068844;28;20216;-81
2022/11/17 09:48:20;;;;;;;7.30;2.00;;;;;;;;;;5050133;28;20848;-80
2022/11/17 09:50:47;;;;;;;6.77;2.27;;;;;;;;;;5066424;28;20875;-80
2022/11/17 09:53:14;;;;;;;5.53;1.80;;;;;;;;;;5060445;28;20259;-80
2022/11/17 09:55:45;;;;;;;6.80;2.20;;;;;;;;;;5050233;28;20193;-80
2022/11/17 09:58:17;;;;;;;6.93;1.90;;;;;;;;;;5051566;28;20178;-80
2022/11/17 10:00:47;;;;;;;6.20;1.67;;;;;;;;;;5051162;28;20193;-80
2022/11/17 10:03:21;;;;;;;7.07;2.00;;;;;;;;;;5068472;28;20209;-80
2022/11/17 10:05:48;;;;;;;7.57;1.83;;;;;;;;;;5066854;28;20185;-80
2022/11/17 10:08:17;;;;;;;8.17;2.30;;;;;;;;;;5084276;28;20204;-81
2022/11/17 10:10:45;;;;;;;8.20;2.00;;;;;;;;;;5066451;28;20193;-80
2022/11/17 10:13:31;;;;;;;5.63;2.00;;;;;;;;;;5067822;28;20833;-80
2022/11/17 10:16:03;;;;;;;7.03;2.60;;;;;;;;;;5066397;28;20697;-80
2022/11/17 10:18:32;;;;;;;4.50;2.10;;;;;;;;;;5066131;28;20565;-80
2022/11/17 10:20:58;;;;;;;5.40;2.30;;;;;;;;;;5066401;28;20185;-80
2022/11/17 10:23:27;;;;;;;6.70;1.83;;;;;;;;;;5049534;28;20213;-80
2022/11/17 10:25:57;;;;;;;6.40;1.60;;;;;;;;;;5062742;28;20273;-80
2022/11/17 10:28:23;;;;;;;6.73;1.90;;;;;;;;;;5034818;28;20181;-79
2022/11/17 10:31:12;;;;;;;5.50;1.83;;;;;;;;;;5048782;28;20217;-81
2022/11/17 10:33:43;;;;;;;7.67;2.53;;;;;;;;;;5052939;28;20205;-80
2022/11/17 10:36:17;;;;;;;10.90;3.23;;;;;;;;;;5057212;28;20272;-79
2022/11/17 10:38:44;;;;;;;8.03;2.77;;;;;;;;;;5065077;28;20245;-81
2022/11/17 10:41:13;;;;;;;9.37;2.57;;;;;;;;;;5050227;28;20246;-81
2022/11/17 10:43:41;;;;;;;5.70;2.17;;;;;;;;;;5070662;28;20255;-82
2022/11/17 10:46:15;;;;;;;9.10;2.37;;;;;;;;;;5052559;28;20189;-80
2022/11/17 10:48:53;;;;;;;5.97;2.20;;;;;;;;;;5084693;28;20207;-79
2022/11/17 10:51:20;;;;;;;7.50;2.10;;;;;;;;;;5069557;28;20272;-81
2022/11/17 10:54:06;;;;;;;5.57;1.70;;;;;;;;;;5065082;28;20202;-81
2022/11/17 10:56:34;;;;;;;7.57;2.13;;;;;;;;;;5070228;28;20215;-80
2022/11/17 10:59:13;;;;;;;7.03;2.10;;;;;;;;;;5069374;28;20189;-81
2022/11/17 11:01:43;;;;;;;8.80;2.27;;;;;;;;;;5087223;28;20189;-77
2022/11/17 11:04:29;;;;;;;5.47;2.20;;;;;;;;;;5077540;28;20223;-77
2022/11/17 11:07:19;;;;;;;6.20;2.07;;;;;;;;;;5059099;28;20185;-76
2022/11/17 11:10:04;;;;;;;10.07;3.97;;;;;;;;;;5084507;28;20232;-77
2022/11/17 11:12:32;;;;;;;12.07;5.70;;;;;;;;;;5067857;28;20253;-78
2022/11/17 11:15:00;;;;;;;12.90;5.43;;;;;;;;;;5074561;28;20177;-78
2022/11/17 11:17:27;;;;;;;26.57;10.97;;;;;;;;;;5073206;28;20300;-79
2022/11/17 11:19:53;;;;;;;11.73;4.43;;;;;;;;;;5073619;28;20738;-79
2022/11/17 11:22:33;;;;;;;7.77;3.00;;;;;;;;;;5072937;28;20213;-78
2022/11/17 11:25:09;;;;;;;12.03;4.37;;;;;;;;;;5073408;28;20178;-78
2022/11/17 11:27:45;;;;;;;9.23;2.27;;;;;;;;;;5073558;28;20275;-77
2022/11/17 11:30:12;;;;;;;5.40;1.87;;;;;;;;;;5078464;28;20223;-78
2022/11/17 11:32:57;;;;;;;5.13;2.00;;;;;;;;;;5075253;28;20297;-79
2022/11/17 11:35:29;;;;;;;5.20;1.90;;;;;;;;;;5053893;28;20177;-78
2022/11/17 11:38:15;;;;;;;3.77;1.50;;;;;;;;;;5051698;28;20193;-78
2022/11/17 11:40:43;;;;;;;3.93;1.60;;;;;;;;;;5073987;28;20192;-78
2022/11/17 11:43:34;;;;;;;4.40;1.40;;;;;;;;;;5083139;28;20730;-78
2022/11/17 11:46:06;;;;;;;7.87;1.70;;;;;;;;;;5072027;28;20589;-78
2022/11/17 11:48:34;;;;;;;5.20;1.50;;;;;;;;;;5085639;28;20185;-80
2022/11/17 11:51:10;;;;;;;6.43;1.40;;;;;;;;;;5067592;28;20212;-79
2022/11/17 11:53:49;;;;;;;5.30;1.50;;;;;;;;;;5072387;28;20695;-79
2022/11/17 11:56:22;;;;;;;3.97;1.37;;;;;;;;;;5070737;28;20181;-79
2022/11/17 11:58:53;;;;;;;3.50;1.50;;;;;;;;;;5086914;28;20276;-79
2022/11/17 12:01:20;;;;;;;5.33;1.60;;;;;;;;;;5076424;28;20185;-79
2022/11/17 12:04:05;;;;;;;5.93;1.80;;;;;;;;;;5069725;28;20707;-78
2022/11/17 12:06:45;;;;;;;7.67;2.00;;;;;;;;;;5055547;28;20170;-80
2022/11/17 12:09:50;;;;;;;5.00;1.73;;;;;;;;;;5076719;28;20180;-79
2022/11/17 12:12:17;;;;;;;4.77;1.50;;;;;;;;;;5047218;28;20219;-79
2022/11/17 12:15:02;;;;;;;4.27;1.60;;;;;;;;;;5032011;28;20319;-79
2022/11/17 12:17:29;;;;;;;7.73;1.77;;;;;;;;;;5046415;28;20331;-79
2022/11/17 12:19:56;;;;;;;5.53;1.40;;;;;;;;;;5061942;28;20276;-78
2022/11/17 12:22:22;;;;;;;6.90;1.40;;;;;;;;;;5052334;28;20266;-81
2022/11/17 12:24:48;;;;;;;6.60;1.50;;;;;;;;;;5070250;28;20189;-79
2022/11/17 12:27:35;;;;;;;6.13;1.60;;;;;;;;;;5072155;28;20230;-78
2022/11/17 12:30:02;;;;;;;4.80;2.03;;;;;;;;;;5066771;28;20268;-78
2022/11/17 12:32:49;;;;;;;6.00;1.90;;;;;;;;;;5068200;28;20239;-78
2022/11/17 12:35:18;;;;;;;6.47;1.77;;;;;;;;;;5057236;28;20680;-78
2022/11/17 12:37:44;;;;;;;6.80;1.60;;;;;;;;;;5069895;28;20177;-78
2022/11/17 12:40:49;;;;;;;7.37;1.97;;;;;;;;;;5068255;28;20234;-80
2022/11/17 12:43:16;;;;;;;10.90;5.03;;;;;;;;;;4991157;28;20217;-80
2022/11/17 12:45:57;;;;;;;8.37;3.60;;;;;;;;;;5043875;28;20201;-80
2022/11/17 12:48:31;;;;;;;7.07;3.13;;;;;;;;;;5085972;28;20193;-81
2022/11/17 12:51:12;;;;;;;8.33;3.33;;;;;;;;;;5067168;28;20189;-80
2022/11/17 12:53:57;;;;;;;13.30;6.63;;;;;;;;;;5061930;28;20217;-80
2022/11/17 12:56:39;;;;;;;8.20;3.60;;;;;;;;;;5057262;28;20258;-80
2022/11/17 12:59:23;;;;;;;6.60;2.23;;;;;;;;;;5083285;28;20172;-80
2022/11/17 13:02:00;;;;;;;8.37;2.27;;;;;;;;;;5082090;28;20729;-80
2022/11/17 13:04:39;;;;;;;8.63;2.17;;;;;;;;;;5070573;28;20253;-80
2022/11/17 13:07:17;;;;;;;9.33;2.37;;;;;;;;;;5079712;28;20189;-80
2022/11/17 13:09:43;;;;;;;9.60;2.60;;;;;;;;;;5064293;28;20702;-80
2022/11/17 13:12:10;;;;;;;8.77;2.20;;;;;;;;;;5081624;28;20196;-80
2022/11/17 13:14:50;;;;;;;9.43;2.37;;;;;;;;;;5067304;28;20173;-80
2022/11/17 13:17:18;;;;;;;8.87;2.07;;;;;;;;;;5064893;28;20197;-80
2022/11/17 13:19:45;;;;;;;8.00;2.17;;;;;;;;;;5041076;28;20234;-80
2022/11/17 13:22:18;;;;;;;8.53;2.83;;;;;;;;;;5061288;28;20277;-80
2022/11/17 13:24:52;;;;;;;8.33;2.27;;;;;;;;;;5063960;28;20842;-81
2022/11/17 13:27:45;;;;;;;10.43;2.00;;;;;;;;;;5081088;28;20203;-80
2022/11/17 13:30:15;;;;;;;6.40;1.87;;;;;;;;;;5065296;28;20202;-80
2022/11/17 13:32:41;;;;;;;7.67;2.20;;;;;;;;;;5057236;28;20213;-80
2022/11/17 13:35:22;;;;;;;5.93;1.70;;;;;;;;;;5060851;28;20234;-80
2022/11/17 13:38:05;;;;;;;10.73;3.17;;;;;;;;;;5065569;28;20208;-80
2022/11/17 13:40:34;;;;;;;10.10;2.47;;;;;;;;;;5060903;28;20231;-80
2022/11/17 13:43:01;;;;;;;8.57;2.30;;;;;;;;;;5062585;28;20205;-80
2022/11/17 13:45:27;;;;;;;7.73;2.03;;;;;;;;;;5050365;28;20250;-80
2022/11/17 13:47:53;;;;;;;8.17;2.20;;;;;;;;;;5062236;28;20177;-80
2022/11/17 13:50:21;;;;;;;8.80;1.83;;;;;;;;;;5063777;28;20264;-80
2022/11/17 13:52:51;;;;;;;7.10;2.30;;;;;;;;;;5081998;28;20220;-80
2022/11/17 13:55:19;;;;;;;8.47;2.10;;;;;;;;;;5082356;28;20188;-80
2022/11/17 13:57:56;;;;;;;7.20;2.27;;;;;;;;;;5061212;28;20217;-80
2022/11/17 14:00:23;;;;;;;5.40;2.10;;;;;;;;;;5077687;28;20180;-80
2022/11/17 14:02:53;;;;;;;6.87;2.03;;;;;;;;;;5061167;28;20217;-81
2022/11/17 14:05:21;;;;;;;5.40;1.93;;;;;;;;;;5065011;28;20220;-81
2022/11/17 14:07:48;;;;;;;7.33;2.13;;;;;;;;;;5050073;28;20189;-81
2022/11/17 14:10:14;;;;;;;7.60;2.00;;;;;;;;;;5072101;28;20312;-81
2022/11/17 14:12:41;;;;;;;8.00;1.70;;;;;;;;;;5043764;28;20589;-81
2022/11/17 14:15:22;;;;;;;8.27;1.70;;;;;;;;;;5057371;28;20185;-83
2022/11/17 14:17:53;;;;;;;6.63;1.30;;;;;;;;;;5060061;28;20200;-81
2022/11/17 14:20:19;;;;;;;4.60;1.43;;;;;;;;;;5065487;28;20181;-82
2022/11/17 14:23:00;;;;;;;4.93;1.50;;;;;;;;;;5061646;28;20227;-81
2022/11/17 14:25:43;;;;;;;4.07;1.50;;;;;;;;;;5063086;28;20193;-81
2022/11/17 14:28:12;;;;;;;4.87;1.40;;;;;;;;;;5065488;28;21001;-80
2022/11/17 14:30:39;;;;;;;4.83;1.87;;;;;;;;;;5058521;28;20191;-80
2022/11/17 14:33:05;;;;;;;6.33;1.40;;;;;;;;;;5059783;28;20225;-81
2022/11/17 14:35:31;;;;;;;3.30;1.20;;;;;;;;;;5049175;28;20214;-81
2022/11/17 14:37:59;;;;;;;2.63;1.27;;;;;;;;;;5053293;28;20629;-80
2022/11/17 14:40:25;;;;;;;5.87;1.50;;;;;;;;;;5089043;28;20187;-80
2022/11/17 14:42:52;;;;;;;10.33;7.53;;;;;;;;;;5073831;28;20197;-81
2022/11/17 14:45:18;;;;;;;10.17;7.57;;;;;;;;;;5079701;28;20321;-81
2022/11/17 14:47:44;;;;;;;6.63;2.60;;;;;;;;;;5049306;28;20178;-80
2022/11/17 14:50:15;;;;;;;3.43;2.10;;;;;;;;;;5070727;28;20216;-80
2022/11/17 14:52:42;;;;;;;6.03;3.40;;;;;;;;;;5072796;28;20219;-80
2022/11/17 14:55:09;;;;;;;2.50;1.70;;;;;;;;;;5075230;28;20177;-79
2022/11/17 14:57:35;;;;;;;5.67;2.90;;;;;;;;;;5070667;28;20177;-80
2022/11/17 15:00:03;;;;;;;3.53;2.20;;;;;;;;;;5082834;28;20186;-80
2022/11/17 15:02:30;;;;;;;5.67;3.67;;;;;;;;;;5086812;28;20291;-80
2022/11/17 15:04:58;;;;;;;7.83;3.30;;;;;;;;;;5067967;28;20181;-80
2022/11/17 15:07:24;;;;;;;4.53;3.10;;;;;;;;;;5068778;28;20270;-79
2022/11/17 15:10:13;;;;;;;7.20;3.90;;;;;;;;;;5056975;28;20185;-79
2022/11/17 15:12:40;;;;;;;4.27;2.70;;;;;;;;;;5070441;28;20213;-80
2022/11/17 15:15:06;;;;;;;5.93;3.73;;;;;;;;;;5073370;28;20213;-79
2022/11/17 15:17:32;;;;;;;12.60;8.40;;;;;;;;;;5076244;28;20610;-79
2022/11/17 15:19:58;;;;;;;9.90;7.43;;;;;;;;;;5076840;28;20263;-79
2022/11/17 15:22:25;;;;;;;8.13;6.53;;;;;;;;;;5052408;28;20225;-79